Terminal Aerodrome Forecast
Issued by NWS

Home | Current Version | Previous Version | Text Only | Print | Product List | Glossary Off
Versions: 1 2 3 4 5 6 7 8 9 10 11 12 13 14 15 16 17 18

000
FTUS43 KICT 200957 AAB
TAFHUT
TAF AMD
KHUT 200957Z 2010/2106 17010KT P6SM BKN005 BKN250
     FM201200 17011KT P6SM SCT005 BKN012
      TEMPO 2012/2014 BKN005
     FM210000 13008KT P6SM BKN012=

USA.gov is the U.S. government's official web portal to all federal, state and local government web resources and services.